createdAt,value
2023-02-08T00:01:29.656Z,51.85
2023-02-08T00:03:57.887Z,47.80
2023-02-08T00:06:26.009Z,44.10
2023-02-08T00:08:54.214Z,59.05
2023-02-08T00:11:23.390Z,50.08
2023-02-08T00:13:51.352Z,53.70
2023-02-08T00:16:20.034Z,44.67
2023-02-08T00:18:48.430Z,53.85
2023-02-08T00:21:18.850Z,46.90
2023-02-08T00:23:47.462Z,44.78
2023-02-08T00:26:16.830Z,45.53
2023-02-08T00:28:46.822Z,57.05
2023-02-08T00:31:18.857Z,51.75
2023-02-08T00:33:47.003Z,55.70
2023-02-08T00:36:15.402Z,52.00
2023-02-08T00:38:43.861Z,55.80
2023-02-08T00:41:12.205Z,50.42
2023-02-08T00:43:40.174Z,46.42
2023-02-08T00:46:09.840Z,47.53
2023-02-08T00:48:38.674Z,45.38
2023-02-08T00:51:10.579Z,45.90
2023-02-08T00:53:41.920Z,44.25
2023-02-08T00:56:12.320Z,42.38
2023-02-08T00:58:42.034Z,49.13
2023-02-08T01:01:10.704Z,51.55
2023-02-08T01:03:42.746Z,48.33
2023-02-08T01:06:16.070Z,51.25
2023-02-08T01:08:44.782Z,47.15
2023-02-08T01:11:21.887Z,44.67
2023-02-08T01:13:51.046Z,48.40
2023-02-08T01:16:23.729Z,46.22
2023-02-08T01:18:55.777Z,52.17
2023-02-08T01:21:31.622Z,38.42
2023-02-08T01:24:00.899Z,40.72
2023-02-08T01:26:32.166Z,45.33
2023-02-08T01:29:01.097Z,42.90
2023-02-08T01:31:33.502Z,48.28
2023-02-08T01:34:02.860Z,50.60
2023-02-08T01:36:32.730Z,40.40
2023-02-08T01:39:03.310Z,42.13
2023-02-08T01:41:38.188Z,37.95
2023-02-08T01:44:12.304Z,41.35
2023-02-08T01:46:47.459Z,49.40
2023-02-08T01:49:27.881Z,35.08
2023-02-08T01:52:14.628Z,50.40
2023-02-08T01:54:56.007Z,45.95
2023-02-08T01:57:25.459Z,48.15
2023-02-08T02:00:14.273Z,46.45
2023-02-08T02:02:44.476Z,46.75
2023-02-08T02:05:13.794Z,35.92
2023-02-08T02:07:42.918Z,37.20
2023-02-08T02:10:28.491Z,37.58
2023-02-08T02:13:02.098Z,43.10
2023-02-08T02:15:30.145Z,38.40
2023-02-08T02:17:59.914Z,39.05
2023-02-08T02:21:03.957Z,38.78
2023-02-08T02:24:02.434Z,41.95
2023-02-08T02:26:44.593Z,42.30
2023-02-08T02:29:37.014Z,36.88
2023-02-08T02:32:17.499Z,46.55
2023-02-08T02:35:14.894Z,40.95
2023-02-08T02:38:07.800Z,43.45
2023-02-08T02:41:36.954Z,34.92
2023-02-08T02:44:34.553Z,40.65
2023-02-08T02:47:19.516Z,38.50
2023-02-08T02:50:14.589Z,39.10
2023-02-08T02:53:12.722Z,43.58
2023-02-08T02:55:49.034Z,38.92
2023-02-08T02:58:21.036Z,37.88
2023-02-08T03:00:58.554Z,46.75
2023-02-08T03:03:31.392Z,34.90
2023-02-08T03:06:19.482Z,35.30
2023-02-08T03:09:09.041Z,47.00
2023-02-08T03:11:40.166Z,36.78
2023-02-08T03:14:14.222Z,37.75
2023-02-08T03:17:11.421Z,39.22
2023-02-08T03:19:50.570Z,34.42
2023-02-08T03:22:29.383Z,31.55
2023-02-08T03:25:20.281Z,40.45
2023-02-08T03:28:28.492Z,44.83
2023-02-08T03:31:41.860Z,41.42
2023-02-08T03:34:21.329Z,29.05
2023-02-08T03:37:10.125Z,41.70
2023-02-08T03:39:40.242Z,34.50
2023-02-08T03:42:24.469Z,41.53
2023-02-08T03:45:07.977Z,40.95
2023-02-08T03:47:42.566Z,35.67
2023-02-08T03:50:17.581Z,37.08
2023-02-08T03:52:49.218Z,45.33
2023-02-08T03:55:32.080Z,38.42
2023-02-08T03:58:13.042Z,34.40
2023-02-08T04:00:46.395Z,41.37
2023-02-08T04:03:21.247Z,36.30
2023-02-08T04:05:50.845Z,37.78
2023-02-08T04:08:20.872Z,33.97
2023-02-08T04:10:50.108Z,33.35
2023-02-08T04:13:19.142Z,30.35
2023-02-08T04:15:47.224Z,40.97
2023-02-08T04:18:15.389Z,35.78
2023-02-08T04:20:43.583Z,35.22
2023-02-08T04:23:11.500Z,34.20
2023-02-08T04:25:39.491Z,29.55
2023-02-08T04:28:07.605Z,36.40
2023-02-08T04:30:35.807Z,32.67
2023-02-08T04:33:04.043Z,37.05
2023-02-08T04:35:32.132Z,33.90
2023-02-08T04:38:00.038Z,31.13
2023-02-08T04:40:28.387Z,36.63
2023-02-08T04:42:56.684Z,39.00
2023-02-08T04:45:25.412Z,31.55
2023-02-08T04:47:54.131Z,36.95
2023-02-08T04:50:22.125Z,31.75
2023-02-08T04:52:50.112Z,37.50
2023-02-08T04:55:18.156Z,28.15
2023-02-08T04:57:46.227Z,41.55
2023-02-08T05:00:14.951Z,29.02
2023-02-08T05:02:42.965Z,34.63
2023-02-08T05:05:11.421Z,26.27
2023-02-08T05:07:39.552Z,27.08
2023-02-08T05:10:08.227Z,32.75
2023-02-08T05:12:36.549Z,29.17
2023-02-08T05:15:05.726Z,31.13
2023-02-08T05:17:33.717Z,24.65
2023-02-08T05:20:01.811Z,31.17
2023-02-08T05:22:30.008Z,32.67
2023-02-08T05:24:58.408Z,31.60
2023-02-08T05:27:27.078Z,34.85
2023-02-08T05:29:55.749Z,41.22
2023-02-08T05:32:25.023Z,33.00
2023-02-08T05:34:53.619Z,40.83
2023-02-08T05:37:21.967Z,32.05
2023-02-08T05:39:50.170Z,44.33
2023-02-08T05:42:18.229Z,42.50
2023-02-08T05:44:46.353Z,45.42
2023-02-08T05:47:14.501Z,30.90
2023-02-08T05:49:42.768Z,32.10
2023-02-08T05:52:11.191Z,31.17
2023-02-08T05:54:39.250Z,25.52
2023-02-08T05:57:07.842Z,32.42
2023-02-08T05:59:35.960Z,26.08
2023-02-08T06:02:04.838Z,28.33
2023-02-08T06:04:33.167Z,25.60
2023-02-08T06:07:01.464Z,31.50
2023-02-08T06:09:29.606Z,33.20
2023-02-08T06:11:57.922Z,24.45
2023-02-08T06:14:26.315Z,27.25
2023-02-08T06:16:54.827Z,32.55
2023-02-08T06:19:23.083Z,20.35
2023-02-08T06:21:51.289Z,30.15
2023-02-08T06:24:19.891Z,21.75
2023-02-08T06:26:48.678Z,33.08
2023-02-08T06:29:16.866Z,24.52
2023-02-08T06:31:45.336Z,29.27
2023-02-08T06:34:13.603Z,21.60
2023-02-08T06:36:41.895Z,26.05
2023-02-08T06:39:10.083Z,31.63
2023-02-08T06:41:38.102Z,25.13
2023-02-08T06:44:06.248Z,25.00
2023-02-08T06:46:34.782Z,18.90
2023-02-08T06:49:03.230Z,17.45
2023-02-08T06:51:31.288Z,19.85
2023-02-08T06:53:59.450Z,20.27
2023-02-08T06:56:27.588Z,14.63
2023-02-08T06:58:57.506Z,17.52
2023-02-08T07:01:25.841Z,17.02
2023-02-08T07:03:54.274Z,23.33
2023-02-08T07:06:22.285Z,23.65
2023-02-08T07:08:50.515Z,16.00
2023-02-08T07:11:20.754Z,15.77
2023-02-08T07:13:51.431Z,14.98
2023-02-08T07:16:21.870Z,11.10
2023-02-08T07:18:49.991Z,19.15
2023-02-08T07:21:18.341Z,14.57
2023-02-08T07:23:46.553Z,13.95
2023-02-08T07:26:15.253Z,11.68
2023-02-08T07:28:44.325Z,13.82
2023-02-08T07:31:16.764Z,13.75
2023-02-08T07:33:45.497Z,14.52
2023-02-08T07:36:13.735Z,15.65
2023-02-08T07:38:41.869Z,15.23
2023-02-08T07:41:13.494Z,16.85
2023-02-08T07:46:18.893Z,18.15
2023-02-08T07:48:49.338Z,15.25
2023-02-08T07:51:17.551Z,14.05
2023-02-08T07:53:46.008Z,15.50
2023-02-08T07:56:14.244Z,11.95
2023-02-08T07:58:42.510Z,15.30
2023-02-08T08:01:23.684Z,13.40
2023-02-08T08:03:52.957Z,15.63
2023-02-08T08:06:23.695Z,15.18
2023-02-08T08:08:52.223Z,17.05
2023-02-08T08:11:22.379Z,13.60
2023-02-08T08:13:51.792Z,18.92
2023-02-08T08:16:20.788Z,17.40
2023-02-08T08:18:49.153Z,23.33
2023-02-08T08:21:17.858Z,20.25
2023-02-08T08:23:46.231Z,24.13
2023-02-08T08:26:18.661Z,21.95
2023-02-08T08:28:48.400Z,22.92
2023-02-08T08:31:23.107Z,20.80
2023-02-08T08:33:51.540Z,27.80
2023-02-08T08:36:19.861Z,20.17
2023-02-08T08:38:48.256Z,23.63
2023-02-08T08:41:23.286Z,24.33
2023-02-08T08:43:51.832Z,28.00
2023-02-08T08:46:20.666Z,20.60
2023-02-08T08:48:48.873Z,24.65
2023-02-08T08:51:17.318Z,23.10
2023-02-08T08:53:45.542Z,28.08
2023-02-08T08:56:13.725Z,29.20
2023-02-08T08:58:43.716Z,28.52
2023-02-08T09:01:14.315Z,30.10
2023-02-08T09:03:42.572Z,30.35
2023-02-08T09:06:11.044Z,29.50
2023-02-08T09:08:39.478Z,29.90
2023-02-08T09:11:13.837Z,28.92
2023-02-08T09:13:42.904Z,29.27
2023-02-08T09:16:18.126Z,26.58
2023-02-08T09:18:46.679Z,36.47
2023-02-08T09:21:18.473Z,32.28
2023-02-08T09:26:21.954Z,30.27
2023-02-08T09:28:50.279Z,44.47
2023-02-08T09:31:23.823Z,38.90
2023-02-08T09:33:54.263Z,45.20
2023-02-08T09:36:25.351Z,31.45
2023-02-08T09:39:02.995Z,34.40
2023-02-08T09:42:11.792Z,39.42
2023-02-08T09:44:57.334Z,32.25
2023-02-08T09:47:33.112Z,32.45
2023-02-08T09:50:21.590Z,34.25
2023-02-08T09:52:59.061Z,41.63
2023-02-08T09:55:46.405Z,35.53
2023-02-08T09:58:42.435Z,37.17
2023-02-08T10:01:31.656Z,41.50
2023-02-08T10:04:34.048Z,39.33
2023-02-08T10:07:02.673Z,37.03
2023-02-08T10:09:31.432Z,34.53
2023-02-08T10:12:14.506Z,35.88
2023-02-08T10:15:12.011Z,40.90
2023-02-08T10:18:08.841Z,37.40
2023-02-08T10:21:02.016Z,33.75
2023-02-08T10:23:36.152Z,43.15
2023-02-08T10:26:32.747Z,36.45
2023-02-08T10:29:32.086Z,34.58
2023-02-08T10:32:08.514Z,41.67
2023-02-08T10:35:06.094Z,37.35
2023-02-08T10:37:40.005Z,39.28
2023-02-08T10:40:38.704Z,35.63
2023-02-08T10:43:27.527Z,35.33
2023-02-08T10:46:16.469Z,38.13
2023-02-08T10:49:10.524Z,41.50
2023-02-08T10:51:39.333Z,29.70
2023-02-08T10:54:14.303Z,32.35
2023-02-08T10:57:03.559Z,37.45
2023-02-08T10:59:51.370Z,31.13
2023-02-08T11:02:35.004Z,32.30
2023-02-08T11:05:05.043Z,33.45
2023-02-08T11:07:36.430Z,28.45
2023-02-08T11:10:26.047Z,31.45
2023-02-08T11:13:18.285Z,34.40
2023-02-08T11:15:59.424Z,38.15
2023-02-08T11:21:39.786Z,32.25
2023-02-08T11:24:39.992Z,40.45
2023-02-08T11:27:29.874Z,37.25
2023-02-08T11:30:16.364Z,35.40
2023-02-08T11:33:09.598Z,38.00
2023-02-08T11:35:38.669Z,33.40
2023-02-08T11:38:07.336Z,34.10
2023-02-08T11:40:44.978Z,30.70
2023-02-08T11:43:30.476Z,36.65
2023-02-08T11:46:01.408Z,36.65
2023-02-08T11:48:51.611Z,28.63
2023-02-08T11:51:38.088Z,32.72
2023-02-08T11:54:07.041Z,37.95
2023-02-08T11:56:36.024Z,31.20
2023-02-08T11:59:19.870Z,38.00
2023-02-08T12:01:48.332Z,43.63
2023-02-08T12:04:18.273Z,33.15
2023-02-08T12:07:12.478Z,38.85
2023-02-08T12:10:37.997Z,35.95
2023-02-08T12:13:24.998Z,38.72
2023-02-08T12:16:05.494Z,41.42
2023-02-08T12:18:53.989Z,22.35
2023-02-08T12:21:28.624Z,29.05
2023-02-08T12:24:07.217Z,33.38
2023-02-08T12:26:40.994Z,27.05
2023-02-08T12:30:04.220Z,35.63
2023-02-08T12:32:56.187Z,30.98
2023-02-08T12:39:20.084Z,22.02
2023-02-08T12:42:22.125Z,30.90
2023-02-08T12:45:22.716Z,33.53
2023-02-08T12:48:49.735Z,34.53
2023-02-08T12:51:30.251Z,29.35
2023-02-08T12:54:09.614Z,28.17
2023-02-08T12:56:53.569Z,25.98
2023-02-08T12:59:45.037Z,24.10
2023-02-08T13:02:32.255Z,27.30
2023-02-08T13:05:06.943Z,32.35
2023-02-08T13:07:41.862Z,28.15
2023-02-08T13:10:39.372Z,27.15
2023-02-08T13:13:24.673Z,25.90
2023-02-08T13:16:09.547Z,31.77
2023-02-08T13:18:45.012Z,35.33
2023-02-08T13:21:31.136Z,29.80
2023-02-08T13:24:00.648Z,30.83
2023-02-08T13:26:34.095Z,26.88
2023-02-08T13:29:03.917Z,30.67
2023-02-08T13:31:41.052Z,25.42
2023-02-08T13:34:36.539Z,25.23
2023-02-08T13:37:25.198Z,30.50
2023-02-08T13:40:22.017Z,31.30
2023-02-08T13:43:00.226Z,33.72
2023-02-08T13:45:45.831Z,32.45
2023-02-08T13:48:25.819Z,31.70
2023-02-08T13:50:56.961Z,32.10
2023-02-08T13:53:41.076Z,23.48
2023-02-08T13:56:34.025Z,29.13
2023-02-08T13:59:02.599Z,27.10
2023-02-08T14:02:13.021Z,27.52
2023-02-08T14:04:46.871Z,28.58
2023-02-08T14:07:33.115Z,31.75
2023-02-08T14:10:09.607Z,28.40
2023-02-08T14:12:57.414Z,23.30
2023-02-08T14:15:34.948Z,28.38
2023-02-08T14:18:04.618Z,32.72
2023-02-08T14:20:40.533Z,35.10
2023-02-08T14:23:27.652Z,32.55
2023-02-08T14:25:58.500Z,39.13
2023-02-08T14:28:35.901Z,31.13
2023-02-08T14:31:08.935Z,38.35
2023-02-08T14:33:57.412Z,37.90
2023-02-08T14:36:38.947Z,30.50
2023-02-08T14:42:05.772Z,38.40
2023-02-08T14:44:43.603Z,35.95
2023-02-08T14:47:24.985Z,28.98
2023-02-08T14:50:16.724Z,36.10
2023-02-08T14:53:13.237Z,42.83
2023-02-08T14:56:01.122Z,33.88
2023-02-08T14:58:38.352Z,33.55
2023-02-08T15:01:28.778Z,34.85
2023-02-08T15:04:02.522Z,38.35
2023-02-08T15:06:37.881Z,34.13
2023-02-08T15:09:14.136Z,35.90
2023-02-08T15:11:42.768Z,45.78
2023-02-08T15:14:21.530Z,41.20
2023-02-08T15:16:50.938Z,46.55
2023-02-08T15:19:39.557Z,43.70
2023-02-08T15:22:42.822Z,46.60
2023-02-08T15:25:30.963Z,53.40
2023-02-08T15:28:20.273Z,53.13
2023-02-08T15:31:05.736Z,55.53
2023-02-08T15:33:34.772Z,43.05
2023-02-08T15:36:21.152Z,44.15
2023-02-08T15:38:49.646Z,52.28
2023-02-08T15:41:29.659Z,48.25
2023-02-08T15:44:07.115Z,52.55
2023-02-08T15:46:36.708Z,44.58
2023-02-08T15:49:04.928Z,50.55
2023-02-08T15:51:33.944Z,58.47
2023-02-08T15:54:03.235Z,57.70
2023-02-08T15:56:39.497Z,58.30
2023-02-08T15:59:21.617Z,99.50
2023-02-08T16:01:51.496Z,83.40
2023-02-08T16:04:20.294Z,61.97
2023-02-08T16:07:00.068Z,73.57
2023-02-08T16:09:30.321Z,70.00
2023-02-08T16:12:01.470Z,67.75
2023-02-08T16:14:32.843Z,70.10
2023-02-08T16:17:46.467Z,63.90
2023-02-08T16:20:38.415Z,110.15
2023-02-08T16:23:33.566Z,109.53
2023-02-08T16:26:28.580Z,99.18
2023-02-08T16:29:07.424Z,86.10
2023-02-08T16:31:36.242Z,72.55
2023-02-08T16:34:08.900Z,81.80
2023-02-08T16:36:49.842Z,74.88
2023-02-08T16:39:23.738Z,81.57
2023-02-08T16:42:14.410Z,116.55
2023-02-08T16:45:01.626Z,110.50
2023-02-08T16:47:53.179Z,101.63
2023-02-08T16:50:27.721Z,121.18
2023-02-08T16:53:01.967Z,327.88
2023-02-08T16:55:37.375Z,132.85
2023-02-08T16:58:05.929Z,115.05
2023-02-08T17:00:36.049Z,105.63
2023-02-08T17:03:04.629Z,116.70
2023-02-08T17:05:38.567Z,130.63
2023-02-08T17:08:13.296Z,114.15
2023-02-08T17:10:42.779Z,158.70
2023-02-08T17:13:19.979Z,159.07
2023-02-08T17:15:51.281Z,176.93
2023-02-08T17:18:21.644Z,167.38
2023-02-08T17:20:58.530Z,155.45
2023-02-08T17:23:27.652Z,158.60
2023-02-08T17:25:57.366Z,152.07
2023-02-08T17:28:27.511Z,147.40
2023-02-08T17:30:59.104Z,156.50
2023-02-08T17:33:29.717Z,148.32
2023-02-08T17:35:58.635Z,146.98
2023-02-08T17:38:28.924Z,141.30
2023-02-08T17:41:00.748Z,165.43
2023-02-08T17:45:58.122Z,171.18
2023-02-08T17:48:27.636Z,170.20
2023-02-08T17:50:56.640Z,165.07
2023-02-08T17:53:25.242Z,171.95
2023-02-08T17:55:53.733Z,178.70
2023-02-08T17:58:23.323Z,160.07
2023-02-08T18:00:51.984Z,163.10
2023-02-08T18:03:21.771Z,186.88
2023-02-08T18:05:57.888Z,193.15
2023-02-08T18:08:27.344Z,178.07
2023-02-08T18:10:55.750Z,190.57
2023-02-08T18:13:23.947Z,191.60
2023-02-08T18:15:53.967Z,201.15
2023-02-08T18:18:22.884Z,211.07
2023-02-08T18:20:54.125Z,199.57
2023-02-08T18:23:23.306Z,168.93
2023-02-08T18:26:03.256Z,177.27
2023-02-08T18:28:32.379Z,148.60
2023-02-08T18:31:10.751Z,129.95
2023-02-08T18:33:39.148Z,126.20
2023-02-08T18:36:11.888Z,141.70
2023-02-08T18:38:46.002Z,137.38
2023-02-08T18:41:23.739Z,126.32
2023-02-08T18:43:53.979Z,137.00
2023-02-08T18:46:25.803Z,129.77
2023-02-08T18:48:55.363Z,137.88
2023-02-08T18:51:25.880Z,141.13
2023-02-08T18:53:55.942Z,143.85
2023-02-08T18:56:27.795Z,132.05
2023-02-08T18:59:00.868Z,137.35
2023-02-08T19:01:29.972Z,154.20
2023-02-08T19:03:59.197Z,161.45
2023-02-08T19:06:31.824Z,161.83
2023-02-08T19:09:02.953Z,169.45
2023-02-08T19:11:40.517Z,196.52
2023-02-08T19:14:13.696Z,195.50
2023-02-08T19:16:46.579Z,178.82
2023-02-08T19:19:16.603Z,168.90
2023-02-08T19:21:46.184Z,150.17
2023-02-08T19:24:15.425Z,128.40
2023-02-08T19:26:44.165Z,125.27
2023-02-08T19:29:16.930Z,121.93
2023-02-08T19:31:45.692Z,117.53
2023-02-08T19:34:14.355Z,135.00
2023-02-08T19:36:51.882Z,139.93
2023-02-08T19:39:25.063Z,128.17
2023-02-08T19:41:55.142Z,146.83
2023-02-08T19:44:23.796Z,138.50
2023-02-08T19:46:55.919Z,141.20
2023-02-08T19:49:26.314Z,133.30
2023-02-08T19:51:55.312Z,129.57
2023-02-08T19:54:24.062Z,128.03
2023-02-08T19:56:54.908Z,124.73
2023-02-08T19:59:28.573Z,135.20
2023-02-08T20:01:57.121Z,119.70
2023-02-08T20:04:25.216Z,129.07
2023-02-08T20:06:55.058Z,150.57
2023-02-08T20:09:23.857Z,224.73
2023-02-08T20:11:57.715Z,155.57
2023-02-08T20:14:34.037Z,124.70
2023-02-08T20:17:03.952Z,143.73
2023-02-08T20:19:35.819Z,171.67
2023-02-08T20:22:05.297Z,285.17
2023-02-08T20:24:34.073Z,138.67
2023-02-08T20:27:02.684Z,107.13
2023-02-08T20:29:33.099Z,157.97
2023-02-08T20:32:02.067Z,140.67
2023-02-08T20:34:30.782Z,142.13
2023-02-08T20:37:08.222Z,144.32
2023-02-08T20:39:39.370Z,134.93
2023-02-08T20:42:08.357Z,130.23
2023-02-08T20:44:37.715Z,129.53
2023-02-08T20:47:06.500Z,143.50
2023-02-08T20:49:34.905Z,138.07
2023-02-08T20:52:04.074Z,134.83
2023-02-08T20:54:32.640Z,155.37
2023-02-08T20:57:01.411Z,146.23
2023-02-08T20:59:30.140Z,139.03
2023-02-08T21:01:58.640Z,189.87
2023-02-08T21:04:27.615Z,129.23
2023-02-08T21:06:55.931Z,154.33
2023-02-08T21:09:25.697Z,131.03
2023-02-08T21:11:54.777Z,171.70
2023-02-08T21:14:23.728Z,172.27
2023-02-08T21:16:56.817Z,198.13
2023-02-08T21:19:29.231Z,186.27
2023-02-08T21:22:01.493Z,174.17
2023-02-08T21:24:31.128Z,175.20
2023-02-08T21:26:59.944Z,192.70
2023-02-08T21:29:29.490Z,192.00
2023-02-08T21:31:58.936Z,183.53
2023-02-08T21:34:27.925Z,158.47
2023-02-08T21:36:56.893Z,166.37
2023-02-08T21:39:25.763Z,147.33
2023-02-08T21:41:55.735Z,155.97
2023-02-08T21:44:24.566Z,160.00
2023-02-08T21:46:53.301Z,175.07
2023-02-08T21:49:40.919Z,148.47
2023-02-08T21:52:30.159Z,105.73
2023-02-08T21:54:59.517Z,158.77
2023-02-08T21:57:31.347Z,201.07
2023-02-08T22:00:01.593Z,187.63
2023-02-08T22:02:31.738Z,190.93
2023-02-08T22:05:02.504Z,145.70
2023-02-08T22:07:43.432Z,185.80
2023-02-08T22:10:14.947Z,168.15
2023-02-08T22:12:43.944Z,171.47
2023-02-08T22:15:15.788Z,208.00
2023-02-08T22:17:44.804Z,221.23
2023-02-08T22:20:15.227Z,193.57
2023-02-08T22:22:43.828Z,214.90
2023-02-08T22:25:12.971Z,217.73
2023-02-08T22:27:41.353Z,199.97
2023-02-08T22:30:13.118Z,139.20
2023-02-08T22:32:43.186Z,191.63
2023-02-08T22:35:17.005Z,188.50
2023-02-08T22:37:46.098Z,234.57
2023-02-08T22:40:14.660Z,189.10
2023-02-08T22:42:46.438Z,197.43
2023-02-08T22:45:15.222Z,176.07
2023-02-08T22:47:46.099Z,225.93
2023-02-08T22:50:15.434Z,205.95
2023-02-08T22:52:44.079Z,187.97
2023-02-08T22:55:12.576Z,237.43
2023-02-08T22:57:43.736Z,224.17
2023-02-08T23:00:15.207Z,211.18
2023-02-08T23:02:43.985Z,227.40
2023-02-08T23:05:12.758Z,204.40
2023-02-08T23:07:41.380Z,218.90
2023-02-08T23:10:11.573Z,205.30
2023-02-08T23:12:40.229Z,171.35
2023-02-08T23:15:11.772Z,173.23
2023-02-08T23:17:40.026Z,159.25
2023-02-08T23:20:10.368Z,205.93
2023-02-08T23:22:39.272Z,335.83
2023-02-08T23:25:08.494Z,233.77
2023-02-08T23:27:38.210Z,199.90
2023-02-08T23:30:09.518Z,184.30
2023-02-08T23:32:38.845Z,188.88
2023-02-08T23:35:09.688Z,174.57
2023-02-08T23:37:38.948Z,170.13
2023-02-08T23:40:07.849Z,152.33
2023-02-08T23:42:35.920Z,184.90
2023-02-08T23:45:05.793Z,185.20
2023-02-08T23:47:34.657Z,182.03
2023-02-08T23:50:03.390Z,155.17
2023-02-08T23:52:31.733Z,181.43
2023-02-08T23:55:00.967Z,172.33
2023-02-08T23:57:38.609Z,189.87
